createdAt,value
2018-04-19T00:01:23.598Z,11.77
2018-04-19T00:03:54.609Z,12.73
2018-04-19T00:06:25.635Z,12.53
2018-04-19T00:08:56.644Z,11.87
2018-04-19T00:11:27.724Z,11.10
2018-04-19T00:13:58.696Z,11.67
2018-04-19T00:16:29.729Z,9.70
2018-04-19T00:19:00.754Z,9.70
2018-04-19T00:21:31.775Z,10.23
2018-04-19T00:24:02.833Z,9.77
2018-04-19T00:26:33.859Z,8.93
2018-04-19T00:29:04.896Z,10.10
2018-04-19T00:31:35.904Z,9.93
2018-04-19T00:34:06.883Z,10.70
2018-04-19T00:36:37.925Z,9.77
2018-04-19T00:39:08.928Z,10.63
2018-04-19T00:41:39.967Z,10.93
2018-04-19T00:44:10.972Z,10.80
2018-04-19T00:46:42.014Z,10.87
2018-04-19T00:49:12.987Z,9.67
2018-04-19T00:51:44.025Z,11.03
2018-04-19T00:54:15.004Z,10.13
2018-04-19T00:56:46.004Z,11.20
2018-04-19T00:59:17.009Z,10.33
2018-04-19T01:01:47.964Z,10.13
2018-04-19T01:04:18.914Z,10.37
2018-04-19T01:06:49.854Z,11.53
2018-04-19T01:09:20.861Z,11.57
2018-04-19T01:11:51.894Z,11.20
2018-04-19T01:14:22.911Z,11.53
2018-04-19T01:16:53.952Z,11.00
2018-04-19T01:19:24.989Z,10.83
2018-04-19T01:21:56.036Z,11.23
2018-04-19T01:24:27.058Z,10.90
2018-04-19T01:26:58.037Z,11.83
2018-04-19T01:29:29.054Z,12.53
2018-04-19T01:32:00.106Z,11.83
2018-04-19T01:34:31.142Z,12.77
2018-04-19T01:37:02.180Z,11.67
2018-04-19T01:39:33.166Z,13.27
2018-04-19T01:42:04.192Z,13.63
2018-04-19T01:44:35.216Z,13.77
2018-04-19T01:47:06.240Z,13.60
2018-04-19T01:49:37.205Z,13.50
2018-04-19T01:52:08.218Z,13.67
2018-04-19T01:54:39.268Z,12.47
2018-04-19T01:57:10.307Z,14.07
2018-04-19T01:59:41.378Z,15.07
2018-04-19T02:02:12.376Z,14.60
2018-04-19T02:04:43.393Z,15.23
2018-04-19T02:07:14.421Z,16.43
2018-04-19T02:09:46.013Z,15.13
2018-04-19T02:12:17.035Z,16.57
2018-04-19T02:14:48.088Z,15.77
2018-04-19T02:17:19.094Z,16.50
2018-04-19T02:19:50.088Z,16.57
2018-04-19T02:22:21.081Z,16.70
2018-04-19T02:24:52.161Z,17.10
2018-04-19T02:27:23.195Z,17.70
2018-04-19T02:29:54.173Z,17.20
2018-04-19T02:32:25.180Z,18.27
2018-04-19T02:34:56.225Z,17.67
2018-04-19T02:37:27.225Z,17.80
2018-04-19T02:39:58.199Z,19.37
2018-04-19T02:42:29.263Z,18.00
2018-04-19T02:45:00.347Z,18.67
2018-04-19T02:47:31.431Z,19.13
2018-04-19T02:50:02.546Z,19.13
2018-04-19T02:52:33.560Z,20.97
2018-04-19T02:55:04.545Z,21.73
2018-04-19T02:57:35.518Z,21.63
2018-04-19T03:00:06.588Z,21.60
2018-04-19T03:02:37.592Z,21.70
2018-04-19T03:05:08.567Z,20.07
2018-04-19T03:07:39.588Z,20.70
2018-04-19T03:10:10.601Z,19.83
2018-04-19T03:12:41.626Z,20.53
2018-04-19T03:15:12.623Z,18.67
2018-04-19T03:17:43.609Z,19.73
2018-04-19T03:20:14.636Z,19.43
2018-04-19T03:22:45.647Z,20.13
2018-04-19T03:25:16.704Z,18.50
2018-04-19T03:27:47.690Z,16.47
2018-04-19T03:30:19.082Z,17.33
2018-04-19T03:32:50.161Z,16.23
2018-04-19T03:35:21.145Z,17.43
2018-04-19T03:37:52.142Z,15.27
2018-04-19T03:40:23.137Z,15.87
2018-04-19T03:42:54.166Z,16.67
2018-04-19T03:45:25.200Z,13.93
2018-04-19T03:47:56.227Z,15.47
2018-04-19T03:50:27.268Z,16.73
2018-04-19T03:52:58.327Z,15.57
2018-04-19T03:55:29.364Z,14.83
2018-04-19T03:58:00.382Z,14.37
2018-04-19T04:00:31.426Z,13.87
2018-04-19T04:03:02.513Z,14.63
2018-04-19T04:05:33.515Z,12.73
2018-04-19T04:08:04.529Z,13.60
2018-04-19T04:10:35.539Z,13.40
2018-04-19T04:13:06.541Z,13.40
2018-04-19T04:15:37.587Z,13.43
2018-04-19T04:18:20.940Z,12.50
2018-04-19T04:21:04.132Z,12.03
2018-04-19T04:23:47.400Z,11.13
2018-04-19T04:26:18.473Z,11.30
2018-04-19T04:28:49.540Z,10.97
2018-04-19T04:31:20.565Z,11.27
2018-04-19T04:33:51.587Z,11.13
2018-04-19T04:36:22.572Z,11.97
2018-04-19T04:38:53.598Z,11.03
2018-04-19T04:41:24.580Z,12.00
2018-04-19T04:43:55.597Z,10.77
2018-04-19T04:46:26.634Z,10.77
2018-04-19T04:48:57.632Z,10.80
2018-04-19T04:51:28.667Z,10.73
2018-04-19T04:53:59.688Z,10.83
2018-04-19T04:56:30.719Z,10.80
2018-04-19T04:59:01.743Z,10.30
2018-04-19T05:01:32.767Z,10.30
2018-04-19T05:04:03.771Z,10.67
2018-04-19T05:06:34.805Z,10.73
2018-04-19T05:09:05.888Z,9.90
2018-04-19T05:11:36.922Z,10.37
2018-04-19T05:14:07.944Z,9.83
2018-04-19T05:16:38.953Z,10.57
2018-04-19T05:19:10.008Z,10.73
2018-04-19T05:21:40.986Z,10.20
2018-04-19T05:24:12.001Z,9.63
2018-04-19T05:26:43.043Z,9.67
2018-04-19T05:29:14.075Z,9.63
2018-04-19T05:31:45.150Z,10.13
2018-04-19T05:34:16.116Z,9.67
2018-04-19T05:36:47.126Z,8.57
2018-04-19T05:39:18.136Z,9.50
2018-04-19T05:41:49.123Z,8.77
2018-04-19T05:44:20.098Z,8.77
2018-04-19T05:46:51.122Z,8.30
2018-04-19T05:49:22.130Z,8.53
2018-04-19T05:51:53.152Z,9.20
2018-04-19T05:54:24.209Z,8.30
2018-04-19T05:56:55.190Z,8.40
2018-04-19T05:59:26.202Z,8.87
2018-04-19T06:01:57.209Z,8.40
2018-04-19T06:04:28.245Z,8.30
2018-04-19T06:06:59.216Z,7.73
2018-04-19T06:09:30.265Z,8.33
2018-04-19T06:12:01.270Z,8.03
2018-04-19T06:14:32.868Z,8.47
2018-04-19T06:17:03.906Z,8.73
2018-04-19T06:19:34.972Z,8.47
2018-04-19T06:22:06.056Z,8.17
2018-04-19T06:24:37.016Z,8.10
2018-04-19T06:27:08.024Z,8.20
2018-04-19T06:29:39.077Z,7.73
2018-04-19T06:32:10.114Z,8.00
2018-04-19T06:34:41.166Z,7.80
2018-04-19T06:37:12.181Z,7.80
2018-04-19T06:39:43.190Z,7.80
2018-04-19T06:42:14.194Z,7.83
2018-04-19T06:44:45.215Z,7.40
2018-04-19T06:47:16.287Z,7.07
2018-04-19T06:49:47.279Z,7.93
2018-04-19T06:52:18.304Z,7.47
2018-04-19T06:54:49.336Z,7.47
2018-04-19T06:57:20.366Z,6.93
2018-04-19T06:59:51.447Z,7.67
2018-04-19T07:02:22.405Z,7.20
2018-04-19T07:04:53.460Z,7.53
2018-04-19T07:07:24.440Z,7.27
2018-04-19T07:09:55.436Z,7.80
2018-04-19T07:12:26.444Z,7.70
2018-04-19T07:14:58.000Z,8.63
2018-04-19T07:17:29.009Z,7.87
2018-04-19T07:20:00.025Z,8.40
2018-04-19T07:22:31.100Z,8.07
2018-04-19T07:25:02.175Z,7.90
2018-04-19T07:27:33.227Z,8.48
2018-04-19T07:30:04.283Z,8.15
2018-04-19T07:32:35.318Z,8.70
2018-04-19T07:35:06.346Z,8.20
2018-04-19T07:37:37.311Z,8.55
2018-04-19T07:40:08.342Z,8.40
2018-04-19T07:42:39.325Z,8.45
2018-04-19T07:45:10.356Z,9.13
2018-04-19T07:47:41.360Z,8.52
2018-04-19T07:50:12.424Z,9.23
2018-04-19T07:52:43.433Z,9.05
2018-04-19T07:55:14.458Z,8.35
2018-04-19T07:57:45.490Z,9.38
2018-04-19T08:00:16.539Z,9.27
2018-04-19T08:02:47.533Z,8.35
2018-04-19T08:05:18.615Z,8.82
2018-04-19T08:07:49.656Z,9.38
2018-04-19T08:10:20.756Z,9.23
2018-04-19T08:12:51.803Z,9.82
2018-04-19T08:15:22.806Z,10.27
2018-04-19T08:17:53.886Z,9.75
2018-04-19T08:20:24.910Z,10.45
2018-04-19T08:22:55.997Z,9.98
2018-04-19T08:25:27.041Z,10.13
2018-04-19T08:27:58.072Z,10.20
2018-04-19T08:30:29.055Z,10.30
2018-04-19T08:33:00.091Z,10.38
2018-04-19T08:35:31.114Z,10.68
2018-04-19T08:38:02.105Z,10.35
2018-04-19T08:40:33.095Z,11.60
2018-04-19T08:43:04.134Z,10.60
2018-04-19T08:45:35.328Z,10.80
2018-04-19T08:48:06.637Z,9.95
2018-04-19T08:50:37.712Z,10.77
2018-04-19T08:53:08.768Z,11.35
2018-04-19T08:55:39.803Z,10.90
2018-04-19T08:58:10.786Z,11.38
2018-04-19T09:00:41.851Z,10.68
2018-04-19T09:03:12.953Z,12.00
2018-04-19T09:05:43.941Z,11.55
2018-04-19T09:08:15.079Z,11.35
2018-04-19T09:10:46.081Z,11.88
2018-04-19T09:13:17.145Z,11.43
2018-04-19T09:15:48.191Z,12.45
2018-04-19T09:18:19.202Z,12.02
2018-04-19T09:20:50.240Z,12.07
2018-04-19T09:23:21.264Z,12.27
2018-04-19T09:25:52.287Z,12.40
2018-04-19T09:28:23.367Z,12.32
2018-04-19T09:30:54.407Z,12.48
2018-04-19T09:33:25.375Z,12.85
2018-04-19T09:35:56.392Z,12.35
2018-04-19T09:38:27.350Z,13.48
2018-04-19T09:40:58.341Z,13.62
2018-04-19T09:43:29.398Z,12.27
2018-04-19T09:46:00.387Z,12.52
2018-04-19T09:48:31.505Z,12.25
2018-04-19T09:51:02.539Z,12.88
2018-04-19T09:53:33.605Z,12.32
2018-04-19T09:56:04.647Z,13.20
2018-04-19T09:58:35.647Z,13.02
2018-04-19T10:01:08.681Z,12.68
2018-04-19T10:03:45.749Z,13.20
2018-04-19T10:06:16.769Z,12.35
2018-04-19T10:08:47.762Z,13.98
2018-04-19T10:11:18.809Z,13.62
2018-04-19T10:13:49.786Z,13.15
2018-04-19T10:16:20.745Z,13.50
2018-04-19T10:18:51.798Z,13.00
2018-04-19T10:21:22.847Z,12.60
2018-04-19T10:23:53.899Z,12.85
2018-04-19T10:26:25.062Z,13.80
2018-04-19T10:28:56.032Z,13.85
2018-04-19T10:31:27.080Z,12.27
2018-04-19T10:33:58.115Z,13.65
2018-04-19T10:36:29.191Z,13.68
2018-04-19T10:39:00.186Z,14.00
2018-04-19T10:41:31.193Z,13.70
2018-04-19T10:44:02.204Z,13.32
2018-04-19T10:46:33.235Z,13.00
2018-04-19T10:49:04.254Z,12.02
2018-04-19T10:51:35.287Z,11.55
2018-04-19T10:54:06.355Z,12.02
2018-04-19T10:56:37.322Z,13.07
2018-04-19T10:59:08.354Z,11.57
2018-04-19T11:01:39.362Z,12.02
2018-04-19T11:04:10.432Z,12.88
2018-04-19T11:06:41.470Z,13.07
2018-04-19T11:09:12.509Z,11.93
2018-04-19T11:11:43.522Z,12.40
2018-04-19T11:14:14.518Z,12.83
2018-04-19T11:16:45.527Z,13.30
2018-04-19T11:19:16.539Z,12.97
2018-04-19T11:21:47.628Z,12.33
2018-04-19T11:24:18.641Z,11.43
2018-04-19T11:26:49.671Z,12.67
2018-04-19T11:29:20.724Z,13.10
2018-04-19T11:31:51.768Z,12.50
2018-04-19T11:34:22.726Z,12.63
2018-04-19T11:36:53.732Z,12.30
2018-04-19T11:39:24.832Z,12.60
2018-04-19T11:41:55.816Z,13.17
2018-04-19T11:44:26.836Z,11.73
2018-04-19T11:46:57.831Z,11.93
2018-04-19T11:49:28.854Z,11.47
2018-04-19T11:51:59.836Z,11.60
2018-04-19T11:54:30.871Z,12.23
2018-04-19T11:57:01.921Z,11.93
2018-04-19T11:59:32.923Z,11.93
2018-04-19T12:02:03.991Z,12.20
2018-04-19T12:04:35.007Z,11.93
2018-04-19T12:07:06.001Z,11.87
2018-04-19T12:09:37.118Z,10.20
2018-04-19T12:12:08.136Z,11.10
2018-04-19T12:14:39.157Z,10.20
2018-04-19T12:17:10.200Z,11.43
2018-04-19T12:19:41.220Z,10.90
2018-04-19T12:22:12.847Z,11.60
2018-04-19T12:24:43.871Z,11.37
2018-04-19T12:27:14.892Z,10.03
2018-04-19T12:29:45.930Z,9.37
2018-04-19T12:32:16.971Z,10.10
2018-04-19T12:34:48.034Z,9.97
2018-04-19T12:37:19.072Z,10.90
2018-04-19T12:39:50.056Z,10.23
2018-04-19T12:42:21.054Z,10.13
2018-04-19T12:44:52.044Z,9.47
2018-04-19T12:47:23.076Z,9.87
2018-04-19T12:49:54.099Z,9.57
2018-04-19T12:52:25.118Z,9.50
2018-04-19T12:54:56.118Z,8.33
2018-04-19T12:57:27.091Z,9.43
2018-04-19T12:59:58.070Z,8.90
2018-04-19T13:02:29.112Z,9.00
2018-04-19T13:05:00.204Z,8.87
2018-04-19T13:07:31.221Z,9.20
2018-04-19T13:10:02.227Z,9.10
2018-04-19T13:12:33.200Z,9.10
2018-04-19T13:15:04.154Z,9.40
2018-04-19T13:17:35.226Z,7.87
2018-04-19T13:20:06.253Z,8.60
2018-04-19T13:22:37.297Z,8.20
2018-04-19T13:25:08.304Z,7.63
2018-04-19T13:27:39.311Z,8.03
2018-04-19T13:30:10.371Z,7.47
2018-04-19T13:32:41.373Z,7.73
2018-04-19T13:35:12.440Z,7.73
2018-04-19T13:37:43.452Z,7.63
2018-04-19T13:40:14.518Z,7.53
2018-04-19T13:42:45.533Z,7.50
2018-04-19T13:45:16.623Z,8.33
2018-04-19T13:47:47.644Z,7.33
2018-04-19T13:50:18.626Z,7.23
2018-04-19T13:52:49.591Z,7.30
2018-04-19T13:55:20.624Z,7.47
2018-04-19T13:57:51.645Z,7.10
2018-04-19T14:00:22.683Z,6.00
2018-04-19T14:02:53.675Z,5.37
2018-04-19T14:05:24.764Z,5.77
2018-04-19T14:07:55.771Z,6.07
2018-04-19T14:10:26.776Z,6.50
2018-04-19T14:12:57.810Z,6.50
2018-04-19T14:15:28.827Z,6.47
2018-04-19T14:17:59.827Z,6.17
2018-04-19T14:20:30.852Z,5.90
2018-04-19T14:23:01.869Z,5.63
2018-04-19T14:25:32.848Z,5.33
2018-04-19T14:28:03.890Z,5.50
2018-04-19T14:30:34.896Z,5.13
2018-04-19T14:33:05.928Z,4.83
2018-04-19T14:35:36.909Z,4.43
2018-04-19T14:38:07.946Z,4.80
2018-04-19T14:40:38.958Z,4.70
2018-04-19T14:43:09.940Z,4.27
2018-04-19T14:45:40.968Z,4.13
2018-04-19T14:48:11.969Z,3.87
2018-04-19T14:50:42.987Z,4.17
2018-04-19T14:53:13.960Z,4.17
2018-04-19T14:55:44.995Z,4.23
2018-04-19T14:58:16.010Z,4.00
2018-04-19T15:00:47.237Z,3.50
2018-04-19T15:03:18.172Z,3.93
2018-04-19T15:05:49.178Z,3.90
2018-04-19T15:08:20.237Z,3.43
2018-04-19T15:10:51.284Z,3.73
2018-04-19T15:13:22.341Z,4.20
2018-04-19T15:15:53.319Z,3.40
2018-04-19T15:18:24.286Z,3.53
2018-04-19T15:20:55.297Z,3.83
2018-04-19T15:23:26.371Z,3.83
2018-04-19T15:25:57.413Z,3.60
2018-04-19T15:28:28.439Z,4.37
2018-04-19T15:30:59.424Z,4.07
2018-04-19T15:33:30.423Z,4.37
2018-04-19T15:36:01.468Z,4.13
2018-04-19T15:38:32.421Z,4.33
2018-04-19T15:41:03.591Z,4.30
2018-04-19T15:43:34.666Z,3.80
2018-04-19T15:46:05.715Z,3.60
2018-04-19T15:48:36.767Z,3.27
2018-04-19T15:51:07.778Z,3.80
2018-04-19T15:53:38.782Z,2.93
2018-04-19T15:56:09.793Z,3.57
2018-04-19T15:58:40.819Z,3.63
2018-04-19T16:01:11.783Z,4.23
2018-04-19T16:03:42.819Z,4.83
2018-04-19T16:06:13.802Z,4.73
2018-04-19T16:08:44.796Z,4.67
2018-04-19T16:11:15.891Z,4.90
2018-04-19T16:13:46.917Z,4.30
2018-04-19T16:16:17.960Z,4.90
2018-04-19T16:18:49.065Z,3.60
2018-04-19T16:21:20.213Z,4.40
2018-04-19T16:23:51.307Z,3.90
2018-04-19T16:26:22.368Z,3.63
2018-04-19T16:28:53.402Z,4.00
2018-04-19T16:31:24.416Z,3.00
2018-04-19T16:33:55.437Z,2.97
2018-04-19T16:36:26.421Z,4.00
2018-04-19T16:38:57.422Z,2.70
2018-04-19T16:41:28.409Z,3.30
2018-04-19T16:43:59.532Z,3.20
2018-04-19T16:46:30.515Z,3.60
2018-04-19T16:49:01.527Z,2.83
2018-04-19T16:51:32.553Z,3.03
2018-04-19T16:54:03.565Z,3.17
2018-04-19T16:56:34.652Z,3.50
2018-04-19T16:59:05.671Z,3.40
2018-04-19T17:01:36.652Z,3.30
2018-04-19T17:04:07.618Z,3.77
2018-04-19T17:06:38.700Z,2.97
2018-04-19T17:09:09.678Z,3.00
2018-04-19T17:11:40.701Z,3.73
2018-04-19T17:14:11.704Z,3.17
2018-04-19T17:16:42.730Z,3.00
2018-04-19T17:19:13.728Z,3.00
2018-04-19T17:21:44.730Z,3.47
2018-04-19T17:24:15.754Z,3.13
2018-04-19T17:26:46.820Z,3.10
2018-04-19T17:29:17.854Z,5.10
2018-04-19T17:31:48.885Z,3.70
2018-04-19T17:34:19.954Z,3.30
2018-04-19T17:36:50.999Z,3.83
2018-04-19T17:39:22.127Z,4.03
2018-04-19T17:41:53.196Z,4.10
2018-04-19T17:44:24.238Z,3.53
2018-04-19T17:46:55.268Z,3.93
2018-04-19T17:49:26.245Z,3.70
2018-04-19T17:51:57.258Z,4.40
2018-04-19T17:54:28.371Z,3.90
2018-04-19T17:56:59.530Z,3.40
2018-04-19T17:59:30.476Z,3.27
2018-04-19T18:02:01.463Z,3.83
2018-04-19T18:04:32.528Z,5.87
2018-04-19T18:07:03.540Z,4.27
2018-04-19T18:09:34.604Z,3.53
2018-04-19T18:12:05.641Z,3.93
2018-04-19T18:14:36.794Z,3.60
2018-04-19T18:17:07.788Z,3.87
2018-04-19T18:19:38.839Z,4.47
2018-04-19T18:22:09.798Z,3.80
2018-04-19T18:24:40.888Z,4.00
2018-04-19T18:27:11.911Z,3.80
2018-04-19T18:29:42.918Z,3.73
2018-04-19T18:32:13.936Z,4.53
2018-04-19T18:34:44.925Z,4.53
2018-04-19T18:37:15.927Z,3.90
2018-04-19T18:39:46.944Z,3.80
2018-04-19T18:42:17.993Z,3.90
2018-04-19T18:44:49.026Z,4.63
2018-04-19T18:47:20.024Z,4.27
2018-04-19T18:49:51.063Z,4.30
2018-04-19T18:52:22.078Z,4.27
2018-04-19T18:54:53.083Z,4.30
2018-04-19T18:57:24.113Z,4.40
2018-04-19T18:59:55.164Z,4.37
2018-04-19T19:02:26.175Z,4.20
2018-04-19T19:04:57.140Z,4.20
2018-04-19T19:07:28.149Z,4.40
2018-04-19T19:09:59.152Z,5.60
2018-04-19T19:12:30.228Z,4.60
2018-04-19T19:15:01.228Z,4.53
2018-04-19T19:17:44.574Z,4.60
2018-04-19T19:20:15.672Z,4.53
2018-04-19T19:22:46.663Z,4.93
2018-04-19T19:25:17.679Z,5.07
2018-04-19T19:27:48.702Z,6.20
2018-04-19T19:30:19.739Z,5.10
2018-04-19T19:32:50.773Z,4.90
2018-04-19T19:35:21.826Z,5.03
2018-04-19T19:37:52.828Z,5.47
2018-04-19T19:40:23.885Z,5.40
2018-04-19T19:42:54.865Z,5.00
2018-04-19T19:45:25.898Z,5.23
2018-04-19T19:47:56.866Z,4.97
2018-04-19T19:50:27.996Z,5.57
2018-04-19T19:52:59.074Z,5.30
2018-04-19T19:55:30.179Z,6.10
2018-04-19T19:58:01.258Z,5.70
2018-04-19T20:00:32.320Z,5.73
2018-04-19T20:03:03.331Z,6.50
2018-04-19T20:05:34.358Z,6.20
2018-04-19T20:08:05.388Z,6.20
2018-04-19T20:10:36.449Z,6.27
2018-04-19T20:13:10.527Z,6.00
2018-04-19T20:15:41.571Z,6.27
2018-04-19T20:18:12.611Z,6.47
2018-04-19T20:20:43.622Z,7.03
2018-04-19T20:23:14.634Z,6.00
2018-04-19T20:25:45.690Z,5.37
2018-04-19T20:28:16.705Z,5.43
2018-04-19T20:30:47.729Z,4.97
2018-04-19T20:33:18.801Z,5.53
2018-04-19T20:35:50.733Z,4.60
2018-04-19T20:38:21.732Z,4.87
2018-04-19T20:40:52.713Z,5.63
2018-04-19T20:43:23.747Z,6.03
2018-04-19T20:45:54.748Z,5.17
2018-04-19T20:48:25.793Z,5.17
2018-04-19T20:50:56.804Z,5.70
2018-04-19T20:53:27.798Z,5.67
2018-04-19T20:55:58.823Z,5.27
2018-04-19T20:58:29.877Z,5.70
2018-04-19T21:01:00.910Z,5.83
2018-04-19T21:03:31.949Z,5.07
2018-04-19T21:06:02.982Z,5.40
2018-04-19T21:08:34.017Z,5.33
2018-04-19T21:11:05.022Z,5.70
2018-04-19T21:13:36.075Z,5.10
2018-04-19T21:16:07.207Z,4.63
2018-04-19T21:18:38.251Z,4.70
2018-04-19T21:21:09.279Z,6.13
2018-04-19T21:23:40.340Z,5.00
2018-04-19T21:26:11.382Z,5.60
2018-04-19T21:28:42.471Z,5.53
2018-04-19T21:31:13.510Z,5.27
2018-04-19T21:33:44.527Z,4.80
2018-04-19T21:36:15.640Z,5.60
2018-04-19T21:38:46.644Z,5.13
2018-04-19T21:41:17.655Z,5.87
2018-04-19T21:43:48.650Z,5.67
2018-04-19T21:46:19.655Z,5.87
2018-04-19T21:48:50.616Z,5.73
2018-04-19T21:51:21.634Z,5.97
2018-04-19T21:53:52.647Z,5.97
2018-04-19T21:56:23.629Z,5.90
2018-04-19T21:58:54.637Z,5.80
2018-04-19T22:01:25.673Z,5.90
2018-04-19T22:03:56.711Z,6.20
2018-04-19T22:06:27.691Z,5.80
2018-04-19T22:08:58.723Z,6.23
2018-04-19T22:11:29.740Z,6.40
2018-04-19T22:14:00.767Z,6.43
2018-04-19T22:16:31.767Z,6.37
2018-04-19T22:19:02.796Z,7.13
2018-04-19T22:21:33.815Z,6.17
2018-04-19T22:24:04.786Z,7.33
2018-04-19T22:26:35.778Z,7.53
2018-04-19T22:29:06.820Z,7.37
2018-04-19T22:31:37.854Z,7.10
2018-04-19T22:34:08.825Z,7.43
2018-04-19T22:36:39.839Z,7.53
2018-04-19T22:39:10.865Z,7.17
2018-04-19T22:41:41.819Z,7.50
2018-04-19T22:44:12.828Z,7.67
2018-04-19T22:46:43.887Z,7.97
2018-04-19T22:49:14.857Z,6.63
2018-04-19T22:51:45.882Z,6.83
2018-04-19T22:54:16.907Z,6.80
2018-04-19T22:56:47.956Z,7.10
2018-04-19T22:59:18.997Z,7.40
2018-04-19T23:01:49.972Z,6.23
2018-04-19T23:04:20.977Z,6.77
2018-04-19T23:06:52.016Z,7.23
2018-04-19T23:09:23.106Z,7.20
2018-04-19T23:11:54.143Z,6.67
2018-04-19T23:14:25.204Z,6.53
2018-04-19T23:16:56.214Z,6.57
2018-04-19T23:19:27.244Z,7.50
2018-04-19T23:21:58.288Z,7.07
2018-04-19T23:24:29.334Z,6.10
2018-04-19T23:27:00.347Z,6.57
2018-04-19T23:29:31.415Z,7.37
2018-04-19T23:32:02.452Z,7.20
2018-04-19T23:34:33.494Z,7.33
2018-04-19T23:37:04.617Z,7.20
2018-04-19T23:39:35.677Z,7.60
2018-04-19T23:42:06.731Z,7.57
2018-04-19T23:44:37.725Z,7.00
2018-04-19T23:47:08.813Z,7.20
2018-04-19T23:49:39.837Z,6.93
2018-04-19T23:52:10.862Z,7.70
2018-04-19T23:54:41.920Z,7.37
2018-04-19T23:57:12.972Z,7.13
2018-04-19T23:59:44.015Z,7.57
